sensor_id;sensor_type;location;lat;lon;timestamp;P1;durP1;ratioP1;P2;durP2;ratioP2
51495;SDS011;37572;52.094;4.870;2023-04-01T00:01:55;1.75;;;0.63;;
51495;SDS011;37572;52.094;4.870;2023-04-01T00:04:21;2.00;;;0.35;;
51495;SDS011;37572;52.094;4.870;2023-04-01T00:06:46;2.42;;;0.60;;
51495;SDS011;37572;52.094;4.870;2023-04-01T00:09:12;1.90;;;0.45;;
51495;SDS011;37572;52.094;4.870;2023-04-01T00:11:38;1.77;;;0.52;;
51495;SDS011;37572;52.094;4.870;2023-04-01T00:14:04;1.40;;;0.55;;
51495;SDS011;37572;52.094;4.870;2023-04-01T00:16:30;1.77;;;0.73;;
51495;SDS011;37572;52.094;4.870;2023-04-01T00:18:55;1.70;;;0.68;;
51495;SDS011;37572;52.094;4.870;2023-04-01T00:21:21;2.22;;;0.55;;
51495;SDS011;37572;52.094;4.870;2023-04-01T00:23:47;2.28;;;0.60;;
51495;SDS011;37572;52.094;4.870;2023-04-01T00:26:13;2.05;;;0.55;;
51495;SDS011;37572;52.094;4.870;2023-04-01T00:28:40;1.33;;;0.22;;
51495;SDS011;37572;52.094;4.870;2023-04-01T00:31:06;2.35;;;0.63;;
51495;SDS011;37572;52.094;4.870;2023-04-01T00:33:33;2.80;;;0.75;;
51495;SDS011;37572;52.094;4.870;2023-04-01T00:36:12;2.57;;;0.83;;
51495;SDS011;37572;52.094;4.870;2023-04-01T00:38:39;1.83;;;0.52;;
51495;SDS011;37572;52.094;4.870;2023-04-01T00:41:05;1.65;;;0.52;;
51495;SDS011;37572;52.094;4.870;2023-04-01T00:43:31;1.90;;;0.40;;
51495;SDS011;37572;52.094;4.870;2023-04-01T00:45:57;1.73;;;0.45;;
51495;SDS011;37572;52.094;4.870;2023-04-01T00:48:23;1.60;;;0.30;;
51495;SDS011;37572;52.094;4.870;2023-04-01T00:53:54;1.65;;;0.55;;
51495;SDS011;37572;52.094;4.870;2023-04-01T00:56:22;2.17;;;0.63;;
51495;SDS011;37572;52.094;4.870;2023-04-01T00:59:31;3.00;;;0.70;;
51495;SDS011;37572;52.094;4.870;2023-04-01T01:02:05;1.58;;;0.32;;
51495;SDS011;37572;52.094;4.870;2023-04-01T01:04:33;2.13;;;0.55;;
51495;SDS011;37572;52.094;4.870;2023-04-01T01:12:46;1.95;;;0.40;;
51495;SDS011;37572;52.094;4.870;2023-04-01T01:15:25;1.48;;;0.63;;
51495;SDS011;37572;52.094;4.870;2023-04-01T01:17:55;2.47;;;0.70;;
51495;SDS011;37572;52.094;4.870;2023-04-01T01:37:37;1.60;;;0.43;;
51495;SDS011;37572;52.094;4.870;2023-04-01T01:40:06;1.90;;;0.52;;
51495;SDS011;37572;52.094;4.870;2023-04-01T01:42:35;3.05;;;0.63;;
51495;SDS011;37572;52.094;4.870;2023-04-01T01:45:03;1.83;;;0.80;;
51495;SDS011;37572;52.094;4.870;2023-04-01T01:47:31;1.65;;;0.22;;
51495;SDS011;37572;52.094;4.870;2023-04-01T01:49:58;2.05;;;0.68;;
51495;SDS011;37572;52.094;4.870;2023-04-01T01:52:26;1.50;;;0.45;;
51495;SDS011;37572;52.094;4.870;2023-04-01T01:54:53;0.88;;;0.38;;
51495;SDS011;37572;52.094;4.870;2023-04-01T01:57:22;1.65;;;0.55;;
51495;SDS011;37572;52.094;4.870;2023-04-01T01:59:52;1.73;;;0.63;;
51495;SDS011;37572;52.094;4.870;2023-04-01T02:02:23;2.22;;;0.93;;
51495;SDS011;37572;52.094;4.870;2023-04-01T02:04:50;1.95;;;0.63;;
51495;SDS011;37572;52.094;4.870;2023-04-01T02:07:22;1.63;;;0.45;;
51495;SDS011;37572;52.094;4.870;2023-04-01T02:09:52;2.75;;;0.77;;
51495;SDS011;37572;52.094;4.870;2023-04-01T02:12:17;1.38;;;0.45;;
51495;SDS011;37572;52.094;4.870;2023-04-01T02:17:17;1.73;;;0.40;;
51495;SDS011;37572;52.094;4.870;2023-04-01T02:19:56;1.10;;;0.52;;
51495;SDS011;37572;52.094;4.870;2023-04-01T02:22:26;2.35;;;0.85;;
51495;SDS011;37572;52.094;4.870;2023-04-01T02:24:55;2.90;;;0.65;;
51495;SDS011;37572;52.094;4.870;2023-04-01T02:27:24;1.33;;;0.47;;
51495;SDS011;37572;52.094;4.870;2023-04-01T02:29:50;1.52;;;0.50;;
51495;SDS011;37572;52.094;4.870;2023-04-01T02:32:17;2.47;;;0.60;;
51495;SDS011;37572;52.094;4.870;2023-04-01T02:34:44;1.83;;;0.82;;
51495;SDS011;37572;52.094;4.870;2023-04-01T02:37:11;2.05;;;0.63;;
51495;SDS011;37572;52.094;4.870;2023-04-01T02:39:37;1.67;;;0.50;;
51495;SDS011;37572;52.094;4.870;2023-04-01T02:42:02;1.43;;;0.40;;
51495;SDS011;37572;52.094;4.870;2023-04-01T02:44:27;1.55;;;0.52;;
51495;SDS011;37572;52.094;4.870;2023-04-01T02:46:53;1.52;;;0.55;;
51495;SDS011;37572;52.094;4.870;2023-04-01T02:49:18;2.08;;;0.30;;
51495;SDS011;37572;52.094;4.870;2023-04-01T02:51:43;1.53;;;0.43;;
51495;SDS011;37572;52.094;4.870;2023-04-01T02:54:09;1.75;;;0.52;;
51495;SDS011;37572;52.094;4.870;2023-04-01T02:56:34;1.70;;;0.52;;
51495;SDS011;37572;52.094;4.870;2023-04-01T02:59:00;2.00;;;0.45;;
51495;SDS011;37572;52.094;4.870;2023-04-01T03:01:25;1.38;;;0.43;;
51495;SDS011;37572;52.094;4.870;2023-04-01T03:03:51;0.80;;;0.25;;
51495;SDS011;37572;52.094;4.870;2023-04-01T03:06:16;1.83;;;0.45;;
51495;SDS011;37572;52.094;4.870;2023-04-01T03:08:42;2.13;;;0.55;;
51495;SDS011;37572;52.094;4.870;2023-04-01T03:11:09;1.73;;;0.73;;
51495;SDS011;37572;52.094;4.870;2023-04-01T03:13:35;1.90;;;0.73;;
51495;SDS011;37572;52.094;4.870;2023-04-01T03:16:01;2.15;;;0.55;;
51495;SDS011;37572;52.094;4.870;2023-04-01T03:18:26;2.70;;;0.43;;
51495;SDS011;37572;52.094;4.870;2023-04-01T03:20:51;1.55;;;0.63;;
51495;SDS011;37572;52.094;4.870;2023-04-01T03:23:17;1.47;;;0.50;;
51495;SDS011;37572;52.094;4.870;2023-04-01T03:25:44;2.22;;;0.82;;
51495;SDS011;37572;52.094;4.870;2023-04-01T03:28:10;1.13;;;0.35;;
51495;SDS011;37572;52.094;4.870;2023-04-01T03:30:35;1.42;;;0.35;;
51495;SDS011;37572;52.094;4.870;2023-04-01T03:33:00;1.00;;;0.33;;
51495;SDS011;37572;52.094;4.870;2023-04-01T03:35:27;1.45;;;0.55;;
51495;SDS011;37572;52.094;4.870;2023-04-01T03:37:53;1.52;;;0.70;;
51495;SDS011;37572;52.094;4.870;2023-04-01T03:40:19;1.10;;;0.35;;
51495;SDS011;37572;52.094;4.870;2023-04-01T03:42:45;1.42;;;0.52;;
51495;SDS011;37572;52.094;4.870;2023-04-01T03:45:11;1.25;;;0.52;;
51495;SDS011;37572;52.094;4.870;2023-04-01T03:47:37;1.55;;;0.45;;
51495;SDS011;37572;52.094;4.870;2023-04-01T03:50:03;2.00;;;0.75;;
51495;SDS011;37572;52.094;4.870;2023-04-01T03:52:30;1.63;;;0.77;;
51495;SDS011;37572;52.094;4.870;2023-04-01T03:54:55;1.03;;;0.20;;
51495;SDS011;37572;52.094;4.870;2023-04-01T03:57:21;1.38;;;0.52;;
51495;SDS011;37572;52.094;4.870;2023-04-01T03:59:46;1.63;;;0.70;;
51495;SDS011;37572;52.094;4.870;2023-04-01T04:02:11;2.23;;;0.63;;
51495;SDS011;37572;52.094;4.870;2023-04-01T04:04:37;1.57;;;0.60;;
51495;SDS011;37572;52.094;4.870;2023-04-01T04:07:02;1.53;;;0.50;;
51495;SDS011;37572;52.094;4.870;2023-04-01T04:09:29;1.13;;;0.80;;
51495;SDS011;37572;52.094;4.870;2023-04-01T04:11:55;1.75;;;0.63;;
51495;SDS011;37572;52.094;4.870;2023-04-01T04:14:21;1.60;;;0.35;;
51495;SDS011;37572;52.094;4.870;2023-04-01T04:16:47;1.67;;;0.70;;
51495;SDS011;37572;52.094;4.870;2023-04-01T04:19:13;1.87;;;0.70;;
51495;SDS011;37572;52.094;4.870;2023-04-01T04:21:39;1.53;;;0.40;;
51495;SDS011;37572;52.094;4.870;2023-04-01T04:24:05;1.67;;;0.90;;
51495;SDS011;37572;52.094;4.870;2023-04-01T04:26:30;1.83;;;0.57;;
51495;SDS011;37572;52.094;4.870;2023-04-01T04:28:56;2.23;;;0.70;;
51495;SDS011;37572;52.094;4.870;2023-04-01T04:31:22;2.30;;;0.63;;
51495;SDS011;37572;52.094;4.870;2023-04-01T04:33:48;1.90;;;0.52;;
51495;SDS011;37572;52.094;4.870;2023-04-01T04:36:15;1.20;;;0.75;;
51495;SDS011;37572;52.094;4.870;2023-04-01T04:38:40;1.95;;;0.70;;
51495;SDS011;37572;52.094;4.870;2023-04-01T04:41:09;1.88;;;0.88;;
51495;SDS011;37572;52.094;4.870;2023-04-01T04:43:36;1.42;;;0.63;;
51495;SDS011;37572;52.094;4.870;2023-04-01T04:46:09;1.60;;;0.63;;
51495;SDS011;37572;52.094;4.870;2023-04-01T04:48:35;1.33;;;0.65;;
51495;SDS011;37572;52.094;4.870;2023-04-01T04:51:00;2.00;;;0.82;;
51495;SDS011;37572;52.094;4.870;2023-04-01T04:53:26;1.95;;;0.43;;
51495;SDS011;37572;52.094;4.870;2023-04-01T04:55:51;1.77;;;0.77;;
51495;SDS011;37572;52.094;4.870;2023-04-01T04:58:17;2.08;;;0.63;;
51495;SDS011;37572;52.094;4.870;2023-04-01T05:00:43;2.28;;;0.90;;
51495;SDS011;37572;52.094;4.870;2023-04-01T05:03:09;2.00;;;0.82;;
51495;SDS011;37572;52.094;4.870;2023-04-01T05:05:35;1.65;;;0.55;;
51495;SDS011;37572;52.094;4.870;2023-04-01T05:08:01;1.80;;;0.90;;
51495;SDS011;37572;52.094;4.870;2023-04-01T05:10:26;1.85;;;0.82;;
51495;SDS011;37572;52.094;4.870;2023-04-01T05:12:52;1.77;;;0.95;;
51495;SDS011;37572;52.094;4.870;2023-04-01T05:15:17;1.40;;;0.70;;
51495;SDS011;37572;52.094;4.870;2023-04-01T05:17:43;1.17;;;0.52;;
51495;SDS011;37572;52.094;4.870;2023-04-01T05:20:08;2.13;;;0.53;;
51495;SDS011;37572;52.094;4.870;2023-04-01T05:22:34;1.80;;;0.70;;
51495;SDS011;37572;52.094;4.870;2023-04-01T05:25:00;1.42;;;0.73;;
51495;SDS011;37572;52.094;4.870;2023-04-01T05:27:25;1.73;;;0.87;;
51495;SDS011;37572;52.094;4.870;2023-04-01T05:29:50;3.10;;;0.80;;
51495;SDS011;37572;52.094;4.870;2023-04-01T05:32:16;1.83;;;0.75;;
51495;SDS011;37572;52.094;4.870;2023-04-01T05:34:41;1.65;;;0.98;;
51495;SDS011;37572;52.094;4.870;2023-04-01T05:37:06;1.98;;;0.88;;
51495;SDS011;37572;52.094;4.870;2023-04-01T05:39:35;1.83;;;0.77;;
51495;SDS011;37572;52.094;4.870;2023-04-01T05:42:05;2.15;;;0.85;;
51495;SDS011;37572;52.094;4.870;2023-04-01T05:44:31;2.00;;;0.82;;
51495;SDS011;37572;52.094;4.870;2023-04-01T05:46:57;1.97;;;0.90;;
51495;SDS011;37572;52.094;4.870;2023-04-01T05:49:22;1.90;;;0.70;;
51495;SDS011;37572;52.094;4.870;2023-04-01T05:51:47;2.40;;;0.80;;
51495;SDS011;37572;52.094;4.870;2023-04-01T05:54:12;2.33;;;0.88;;
51495;SDS011;37572;52.094;4.870;2023-04-01T05:56:38;2.03;;;0.80;;
51495;SDS011;37572;52.094;4.870;2023-04-01T05:59:03;1.40;;;0.75;;
51495;SDS011;37572;52.094;4.870;2023-04-01T06:01:28;2.10;;;0.90;;
51495;SDS011;37572;52.094;4.870;2023-04-01T06:03:54;3.20;;;0.90;;
51495;SDS011;37572;52.094;4.870;2023-04-01T06:06:26;1.65;;;0.73;;
51495;SDS011;37572;52.094;4.870;2023-04-01T06:08:53;1.63;;;0.93;;
51495;SDS011;37572;52.094;4.870;2023-04-01T06:11:37;1.65;;;0.85;;
51495;SDS011;37572;52.094;4.870;2023-04-01T06:17:09;1.90;;;0.73;;
51495;SDS011;37572;52.094;4.870;2023-04-01T06:27:55;2.70;;;0.95;;
51495;SDS011;37572;52.094;4.870;2023-04-01T06:30:44;3.55;;;1.02;;
51495;SDS011;37572;52.094;4.870;2023-04-01T06:38:57;3.65;;;1.00;;
51495;SDS011;37572;52.094;4.870;2023-04-01T06:49:35;2.40;;;0.95;;
51495;SDS011;37572;52.094;4.870;2023-04-01T06:55:16;4.38;;;1.77;;
51495;SDS011;37572;52.094;4.870;2023-04-01T06:57:51;3.97;;;2.40;;
51495;SDS011;37572;52.094;4.870;2023-04-01T07:00:27;4.07;;;2.15;;
51495;SDS011;37572;52.094;4.870;2023-04-01T07:03:00;6.82;;;2.60;;
51495;SDS011;37572;52.094;4.870;2023-04-01T07:05:31;6.63;;;2.33;;
51495;SDS011;37572;52.094;4.870;2023-04-01T07:07:59;5.82;;;2.42;;
51495;SDS011;37572;52.094;4.870;2023-04-01T07:10:35;4.20;;;2.25;;
51495;SDS011;37572;52.094;4.870;2023-04-01T07:13:15;3.92;;;1.77;;
51495;SDS011;37572;52.094;4.870;2023-04-01T07:16:09;4.68;;;2.00;;
51495;SDS011;37572;52.094;4.870;2023-04-01T07:18:41;4.70;;;2.33;;
51495;SDS011;37572;52.094;4.870;2023-04-01T07:21:22;5.93;;;2.15;;
51495;SDS011;37572;52.094;4.870;2023-04-01T07:23:51;4.18;;;1.75;;
51495;SDS011;37572;52.094;4.870;2023-04-01T07:26:22;5.32;;;2.17;;
51495;SDS011;37572;52.094;4.870;2023-04-01T07:28:51;4.18;;;1.95;;
51495;SDS011;37572;52.094;4.870;2023-04-01T07:31:30;6.60;;;2.88;;
51495;SDS011;37572;52.094;4.870;2023-04-01T07:36:42;5.13;;;2.70;;
51495;SDS011;37572;52.094;4.870;2023-04-01T07:39:15;5.72;;;2.63;;
51495;SDS011;37572;52.094;4.870;2023-04-01T07:56:17;5.22;;;2.13;;
51495;SDS011;37572;52.094;4.870;2023-04-01T07:59:00;3.80;;;2.03;;
51495;SDS011;37572;52.094;4.870;2023-04-01T08:04:17;4.40;;;1.92;;
51495;SDS011;37572;52.094;4.870;2023-04-01T08:09:59;4.30;;;2.28;;
51495;SDS011;37572;52.094;4.870;2023-04-01T08:15:36;4.63;;;1.90;;
51495;SDS011;37572;52.094;4.870;2023-04-01T08:23:27;7.30;;;2.90;;
51495;SDS011;37572;52.094;4.870;2023-04-01T08:28:36;5.97;;;2.83;;
51495;SDS011;37572;52.094;4.870;2023-04-01T08:31:43;5.25;;;2.67;;
51495;SDS011;37572;52.094;4.870;2023-04-01T08:37:08;5.10;;;2.60;;
51495;SDS011;37572;52.094;4.870;2023-04-01T08:39:40;3.95;;;1.95;;
51495;SDS011;37572;52.094;4.870;2023-04-01T08:50:42;4.18;;;2.80;;
51495;SDS011;37572;52.094;4.870;2023-04-01T08:53:50;4.55;;;2.25;;
51495;SDS011;37572;52.094;4.870;2023-04-01T08:56:28;3.80;;;2.25;;
51495;SDS011;37572;52.094;4.870;2023-04-01T09:10:59;4.00;;;2.17;;
51495;SDS011;37572;52.094;4.870;2023-04-01T09:13:43;3.97;;;1.88;;
51495;SDS011;37572;52.094;4.870;2023-04-01T09:27:32;4.38;;;2.58;;
51495;SDS011;37572;52.094;4.870;2023-04-01T09:38:55;2.92;;;1.52;;
51495;SDS011;37572;52.094;4.870;2023-04-01T09:41:28;2.75;;;1.58;;
51495;SDS011;37572;52.094;4.870;2023-04-01T09:52:01;2.45;;;1.30;;
51495;SDS011;37572;52.094;4.870;2023-04-01T10:16:05;2.97;;;1.42;;
51495;SDS011;37572;52.094;4.870;2023-04-01T10:21:29;2.75;;;1.42;;
51495;SDS011;37572;52.094;4.870;2023-04-01T10:29:23;3.15;;;1.20;;
51495;SDS011;37572;52.094;4.870;2023-04-01T10:37:21;2.83;;;1.67;;
51495;SDS011;37572;52.094;4.870;2023-04-01T10:39:57;2.28;;;0.82;;
51495;SDS011;37572;52.094;4.870;2023-04-01T10:50:53;2.72;;;1.20;;
51495;SDS011;37572;52.094;4.870;2023-04-01T10:54:05;3.75;;;1.00;;
51495;SDS011;37572;52.094;4.870;2023-04-01T10:56:47;4.25;;;1.20;;
51495;SDS011;37572;52.094;4.870;2023-04-01T11:02:05;2.40;;;1.13;;
51495;SDS011;37572;52.094;4.870;2023-04-01T11:08:15;2.90;;;0.93;;
51495;SDS011;37572;52.094;4.870;2023-04-01T11:11:19;2.20;;;1.00;;
51495;SDS011;37572;52.094;4.870;2023-04-01T11:39:36;3.83;;;1.23;;
51495;SDS011;37572;52.094;4.870;2023-04-01T11:47:45;3.53;;;1.13;;
51495;SDS011;37572;52.094;4.870;2023-04-01T11:50:21;2.00;;;1.27;;
51495;SDS011;37572;52.094;4.870;2023-04-01T11:53:05;2.58;;;1.13;;
51495;SDS011;37572;52.094;4.870;2023-04-01T11:55:58;3.17;;;1.17;;
51495;SDS011;37572;52.094;4.870;2023-04-01T12:07:43;5.30;;;1.25;;
51495;SDS011;37572;52.094;4.870;2023-04-01T12:10:28;2.20;;;1.08;;
51495;SDS011;37572;52.094;4.870;2023-04-01T12:13:14;3.22;;;1.08;;
51495;SDS011;37572;52.094;4.870;2023-04-01T12:15:58;2.42;;;1.42;;
51495;SDS011;37572;52.094;4.870;2023-04-01T12:18:57;3.10;;;1.13;;
51495;SDS011;37572;52.094;4.870;2023-04-01T12:29:27;2.50;;;1.20;;
51495;SDS011;37572;52.094;4.870;2023-04-01T12:32:24;1.88;;;1.10;;
51495;SDS011;37572;52.094;4.870;2023-04-01T12:55:40;2.20;;;1.08;;
51495;SDS011;37572;52.094;4.870;2023-04-01T13:06:15;3.25;;;1.40;;
51495;SDS011;37572;52.094;4.870;2023-04-01T13:11:40;2.08;;;1.20;;
51495;SDS011;37572;52.094;4.870;2023-04-01T13:17:21;2.88;;;0.82;;
51495;SDS011;37572;52.094;4.870;2023-04-01T13:25:22;2.78;;;1.17;;
51495;SDS011;37572;52.094;4.870;2023-04-01T13:28:02;1.95;;;1.20;;
51495;SDS011;37572;52.094;4.870;2023-04-01T13:47:54;2.20;;;1.05;;
51495;SDS011;37572;52.094;4.870;2023-04-01T13:50:26;2.55;;;1.00;;
51495;SDS011;37572;52.094;4.870;2023-04-01T13:56:16;3.03;;;0.98;;
51495;SDS011;37572;52.094;4.870;2023-04-01T13:58:57;2.10;;;0.77;;
51495;SDS011;37572;52.094;4.870;2023-04-01T14:18:13;1.65;;;0.85;;
51495;SDS011;37572;52.094;4.870;2023-04-01T14:44:04;1.70;;;0.93;;
51495;SDS011;37572;52.094;4.870;2023-04-01T14:49:35;2.45;;;1.33;;
51495;SDS011;37572;52.094;4.870;2023-04-01T14:55:15;2.65;;;0.90;;
51495;SDS011;37572;52.094;4.870;2023-04-01T14:57:58;2.53;;;1.10;;
51495;SDS011;37572;52.094;4.870;2023-04-01T15:00:25;3.25;;;1.13;;
51495;SDS011;37572;52.094;4.870;2023-04-01T15:22:49;1.65;;;0.75;;
51495;SDS011;37572;52.094;4.870;2023-04-01T15:31:01;1.30;;;0.60;;
51495;SDS011;37572;52.094;4.870;2023-04-01T15:36:51;1.50;;;0.70;;
51495;SDS011;37572;52.094;4.870;2023-04-01T15:42:18;1.10;;;0.50;;
51495;SDS011;37572;52.094;4.870;2023-04-01T15:45:00;1.10;;;0.52;;
51495;SDS011;37572;52.094;4.870;2023-04-01T15:47:37;1.85;;;0.60;;
51495;SDS011;37572;52.094;4.870;2023-04-01T15:55:31;1.10;;;0.50;;
51495;SDS011;37572;52.094;4.870;2023-04-01T16:09:34;1.13;;;0.43;;
51495;SDS011;37572;52.094;4.870;2023-04-01T16:17:19;1.00;;;0.50;;
51495;SDS011;37572;52.094;4.870;2023-04-01T16:22:49;1.30;;;0.43;;
51495;SDS011;37572;52.094;4.870;2023-04-01T16:25:36;1.27;;;0.43;;
51495;SDS011;37572;52.094;4.870;2023-04-01T16:28:23;0.90;;;0.35;;
51495;SDS011;37572;52.094;4.870;2023-04-01T16:44:12;0.63;;;0.20;;
51495;SDS011;37572;52.094;4.870;2023-04-01T16:46:45;1.05;;;0.20;;
51495;SDS011;37572;52.094;4.870;2023-04-01T17:02:30;1.27;;;0.43;;
51495;SDS011;37572;52.094;4.870;2023-04-01T17:07:40;0.68;;;0.38;;
51495;SDS011;37572;52.094;4.870;2023-04-01T17:27:05;0.88;;;0.30;;
51495;SDS011;37572;52.094;4.870;2023-04-01T17:35:08;0.50;;;0.20;;
51495;SDS011;37572;52.094;4.870;2023-04-01T17:45:24;0.60;;;0.17;;
51495;SDS011;37572;52.094;4.870;2023-04-01T17:48:03;0.57;;;0.22;;
51495;SDS011;37572;52.094;4.870;2023-04-01T17:53:41;0.50;;;0.22;;
51495;SDS011;37572;52.094;4.870;2023-04-01T17:59:03;0.60;;;0.40;;
51495;SDS011;37572;52.094;4.870;2023-04-01T18:04:37;0.43;;;0.43;;
51495;SDS011;37572;52.094;4.870;2023-04-01T18:07:22;0.90;;;0.15;;
51495;SDS011;37572;52.094;4.870;2023-04-01T18:18:46;0.30;;;0.28;;
51495;SDS011;37572;52.094;4.870;2023-04-01T18:21:29;0.20;;;0.10;;
51495;SDS011;37572;52.094;4.870;2023-04-01T18:24:23;0.20;;;0.13;;
51495;SDS011;37572;52.094;4.870;2023-04-01T18:27:31;0.50;;;0.30;;
51495;SDS011;37572;52.094;4.870;2023-04-01T18:29:58;0.43;;;0.43;;
51495;SDS011;37572;52.094;4.870;2023-04-01T18:35:21;0.63;;;0.20;;
51495;SDS011;37572;52.094;4.870;2023-04-01T18:43:08;0.57;;;0.22;;
51495;SDS011;37572;52.094;4.870;2023-04-01T18:45:50;0.40;;;0.13;;
51495;SDS011;37572;52.094;4.870;2023-04-01T18:51:21;0.50;;;0.22;;
51495;SDS011;37572;52.094;4.870;2023-04-01T18:53:56;0.40;;;0.20;;
51495;SDS011;37572;52.094;4.870;2023-04-01T18:56:24;1.00;;;0.30;;
51495;SDS011;37572;52.094;4.870;2023-04-01T19:04:47;0.60;;;0.30;;
51495;SDS011;37572;52.094;4.870;2023-04-01T19:08:12;0.50;;;0.40;;
51495;SDS011;37572;52.094;4.870;2023-04-01T19:29:54;0.70;;;0.22;;
51495;SDS011;37572;52.094;4.870;2023-04-01T19:37:57;1.13;;;0.10;;
51495;SDS011;37572;52.094;4.870;2023-04-01T19:45:38;0.32;;;0.30;;
51495;SDS011;37572;52.094;4.870;2023-04-01T19:51:05;0.60;;;0.38;;
51495;SDS011;37572;52.094;4.870;2023-04-01T19:56:19;0.98;;;0.17;;
51495;SDS011;37572;52.094;4.870;2023-04-01T19:58:59;0.50;;;0.25;;
51495;SDS011;37572;52.094;4.870;2023-04-01T20:01:34;0.80;;;0.32;;
51495;SDS011;37572;52.094;4.870;2023-04-01T20:04:22;0.75;;;0.20;;
51495;SDS011;37572;52.094;4.870;2023-04-01T20:07:07;0.30;;;0.13;;
51495;SDS011;37572;52.094;4.870;2023-04-01T20:09:53;0.30;;;0.15;;
51495;SDS011;37572;52.094;4.870;2023-04-01T20:14:59;0.40;;;0.13;;
51495;SDS011;37572;52.094;4.870;2023-04-01T20:17:41;0.38;;;0.30;;
51495;SDS011;37572;52.094;4.870;2023-04-01T20:28:00;0.32;;;0.13;;
51495;SDS011;37572;52.094;4.870;2023-04-01T20:33:05;0.28;;;0.13;;
51495;SDS011;37572;52.094;4.870;2023-04-01T20:44:55;0.40;;;0.20;;
51495;SDS011;37572;52.094;4.870;2023-04-01T20:51:06;0.40;;;0.20;;
51495;SDS011;37572;52.094;4.870;2023-04-01T20:53:36;0.22;;;0.15;;
51495;SDS011;37572;52.094;4.870;2023-04-01T20:58:53;0.50;;;0.25;;
51495;SDS011;37572;52.094;4.870;2023-04-01T21:21:01;0.35;;;0.35;;
51495;SDS011;37572;52.094;4.870;2023-04-01T21:23:39;0.40;;;0.22;;
51495;SDS011;37572;52.094;4.870;2023-04-01T21:28:55;0.52;;;0.20;;
51495;SDS011;37572;52.094;4.870;2023-04-01T21:37:16;0.30;;;0.20;;
51495;SDS011;37572;52.094;4.870;2023-04-01T21:50:46;0.47;;;0.13;;
51495;SDS011;37572;52.094;4.870;2023-04-01T22:07:06;0.43;;;0.13;;
51495;SDS011;37572;52.094;4.870;2023-04-01T22:09:45;0.30;;;0.15;;
51495;SDS011;37572;52.094;4.870;2023-04-01T22:20:48;0.65;;;0.65;;
51495;SDS011;37572;52.094;4.870;2023-04-01T22:23:25;0.70;;;0.30;;
51495;SDS011;37572;52.094;4.870;2023-04-01T22:25:58;0.80;;;0.30;;
51495;SDS011;37572;52.094;4.870;2023-04-01T22:36:28;0.98;;;0.30;;
51495;SDS011;37572;52.094;4.870;2023-04-01T22:44:16;1.30;;;0.43;;
51495;SDS011;37572;52.094;4.870;2023-04-01T22:47:13;1.67;;;0.40;;
51495;SDS011;37572;52.094;4.870;2023-04-01T22:49:59;1.58;;;0.38;;
51495;SDS011;37572;52.094;4.870;2023-04-01T22:52:42;2.00;;;0.50;;
51495;SDS011;37572;52.094;4.870;2023-04-01T22:57:54;1.42;;;0.40;;
51495;SDS011;37572;52.094;4.870;2023-04-01T23:00:43;1.35;;;0.50;;
51495;SDS011;37572;52.094;4.870;2023-04-01T23:03:19;1.23;;;0.60;;
51495;SDS011;37572;52.094;4.870;2023-04-01T23:05:50;1.20;;;0.50;;
51495;SDS011;37572;52.094;4.870;2023-04-01T23:13:44;1.45;;;0.80;;
51495;SDS011;37572;52.094;4.870;2023-04-01T23:16:17;1.40;;;0.77;;
51495;SDS011;37572;52.094;4.870;2023-04-01T23:18:51;1.40;;;0.70;;
51495;SDS011;37572;52.094;4.870;2023-04-01T23:21:35;1.20;;;0.43;;
51495;SDS011;37572;52.094;4.870;2023-04-01T23:24:18;2.55;;;0.75;;
51495;SDS011;37572;52.094;4.870;2023-04-01T23:26:59;1.38;;;0.80;;
51495;SDS011;37572;52.094;4.870;2023-04-01T23:29:26;1.60;;;0.52;;
51495;SDS011;37572;52.094;4.870;2023-04-01T23:32:02;1.42;;;0.73;;
51495;SDS011;37572;52.094;4.870;2023-04-01T23:34:35;2.60;;;0.60;;
51495;SDS011;37572;52.094;4.870;2023-04-01T23:37:04;1.38;;;0.80;;
51495;SDS011;37572;52.094;4.870;2023-04-01T23:39:35;1.35;;;0.60;;
51495;SDS011;37572;52.094;4.870;2023-04-01T23:42:04;1.40;;;0.43;;
51495;SDS011;37572;52.094;4.870;2023-04-01T23:44:36;1.92;;;0.47;;
51495;SDS011;37572;52.094;4.870;2023-04-01T23:47:02;2.10;;;0.63;;
51495;SDS011;37572;52.094;4.870;2023-04-01T23:52:13;1.33;;;0.50;;
51495;SDS011;37572;52.094;4.870;2023-04-01T23:55:00;2.20;;;0.70;;
51495;SDS011;37572;52.094;4.870;2023-04-01T23:57:36;1.13;;;0.50;;
